Time;durP1;ratioP1;P1;durP2;ratioP2;P2;SDS_P1;SDS_P2;PMS_P1;PMS_P2;Temp;Humidity;BMP_temperature;BMP_pressure;BME280_temperature;BME280_humidity;BME280_pressure;Samples;Min_cycle;Max_cycle;Signal;HPM_P1;HPM_P2
2021/06/05 00:01:28;;;;;;;14.55;5.68;;;;;;;;;;5113202;28;20043;-68
2021/06/05 00:03:55;;;;;;;8.20;4.95;;;;;;;;;;5113499;28;20465;-68
2021/06/05 00:06:21;;;;;;;14.07;5.45;;;;;;;;;;5113604;28;20443;-68
2021/06/05 00:08:47;;;;;;;9.23;5.00;;;;;;;;;;5113854;28;20059;-68
2021/06/05 00:11:14;;;;;;;10.68;5.53;;;;;;;;;;5113956;28;20085;-68
2021/06/05 00:13:42;;;;;;;12.45;5.38;;;;;;;;;;5113366;28;20016;-67
2021/06/05 00:16:09;;;;;;;8.65;4.78;;;;;;;;;;5112079;28;20040;-68
2021/06/05 00:18:35;;;;;;;11.63;5.25;;;;;;;;;;5113303;28;20094;-68
2021/06/05 00:21:01;;;;;;;8.00;5.13;;;;;;;;;;5113858;28;20116;-68
2021/06/05 00:23:26;;;;;;;11.65;5.43;;;;;;;;;;5113568;28;20062;-69
2021/06/05 00:25:53;;;;;;;9.38;5.30;;;;;;;;;;5113269;28;20027;-68
2021/06/05 00:28:19;;;;;;;12.55;6.07;;;;;;;;;;5113317;28;20032;-68
2021/06/05 00:30:45;;;;;;;13.27;5.45;;;;;;;;;;5113283;28;20037;-68
2021/06/05 00:33:10;;;;;;;10.30;5.13;;;;;;;;;;5113419;28;20077;-68
2021/06/05 00:35:36;;;;;;;10.18;5.25;;;;;;;;;;5113000;28;20026;-68
2021/06/05 00:38:02;;;;;;;10.55;5.20;;;;;;;;;;5113402;28;20039;-68
2021/06/05 00:40:29;;;;;;;11.63;6.00;;;;;;;;;;5113542;28;20066;-67
2021/06/05 00:42:55;;;;;;;9.60;5.55;;;;;;;;;;5113679;28;20012;-68
2021/06/05 00:45:21;;;;;;;15.30;5.60;;;;;;;;;;5112847;28;20031;-68
2021/06/05 00:47:47;;;;;;;10.75;5.57;;;;;;;;;;5112998;28;20103;-68
2021/06/05 00:50:12;;;;;;;10.60;5.25;;;;;;;;;;5113013;28;20099;-68
2021/06/05 00:52:39;;;;;;;12.27;5.60;;;;;;;;;;5112663;28;20032;-67
2021/06/05 00:55:05;;;;;;;12.00;5.78;;;;;;;;;;5113617;28;20452;-68
2021/06/05 00:57:31;;;;;;;9.32;5.35;;;;;;;;;;5112084;28;20122;-68
2021/06/05 00:59:56;;;;;;;12.57;5.05;;;;;;;;;;5112919;28;20103;-68
2021/06/05 01:02:21;;;;;;;10.00;5.15;;;;;;;;;;5112920;28;20106;-68
2021/06/05 01:04:47;;;;;;;9.77;5.07;;;;;;;;;;5112797;28;20012;-66
2021/06/05 01:07:20;;;;;;;10.43;4.60;;;;;;;;;;5113158;28;20077;-66
2021/06/05 01:10:00;;;;;;;12.48;4.85;;;;;;;;;;5094560;28;20408;-67
2021/06/05 01:12:46;;;;;;;12.68;5.20;;;;;;;;;;5112986;28;20050;-67
2021/06/05 01:15:12;;;;;;;8.90;4.38;;;;;;;;;;5116990;28;20023;-68
2021/06/05 01:17:39;;;;;;;12.82;5.28;;;;;;;;;;5116796;28;20042;-68
2021/06/05 01:20:09;;;;;;;9.30;5.35;;;;;;;;;;5116548;28;20031;-67
2021/06/05 01:23:01;;;;;;;9.20;5.38;;;;;;;;;;5116616;28;20104;-68
2021/06/05 01:25:45;;;;;;;10.45;5.20;;;;;;;;;;5116998;28;20023;-68
2021/06/05 01:28:10;;;;;;;7.68;4.53;;;;;;;;;;5113565;28;20032;-68
2021/06/05 01:30:40;;;;;;;12.70;5.25;;;;;;;;;;5096440;28;20107;-67
2021/06/05 01:33:06;;;;;;;11.52;5.10;;;;;;;;;;5111370;28;20039;-68
2021/06/05 01:35:32;;;;;;;13.65;5.10;;;;;;;;;;5116546;28;20015;-67
2021/06/05 01:37:58;;;;;;;14.43;5.78;;;;;;;;;;5116260;28;20081;-68
2021/06/05 01:40:25;;;;;;;11.02;5.53;;;;;;;;;;5116760;28;20449;-68
2021/06/05 01:42:51;;;;;;;13.07;5.25;;;;;;;;;;5116174;28;20383;-68
2021/06/05 01:45:25;;;;;;;8.85;5.18;;;;;;;;;;5116375;28;20027;-68
2021/06/05 01:47:51;;;;;;;9.38;4.50;;;;;;;;;;5116231;28;20027;-68
2021/06/05 01:50:17;;;;;;;12.57;5.25;;;;;;;;;;5116029;28;20031;-67
2021/06/05 01:52:43;;;;;;;14.60;4.97;;;;;;;;;;5116031;28;20498;-68
2021/06/05 01:55:13;;;;;;;13.18;5.53;;;;;;;;;;5115702;28;20094;-67
2021/06/05 01:57:42;;;;;;;8.60;4.72;;;;;;;;;;5116356;28;20039;-68
2021/06/05 02:00:12;;;;;;;11.10;4.78;;;;;;;;;;5115256;28;20571;-67
2021/06/05 02:02:38;;;;;;;12.10;5.20;;;;;;;;;;5115538;28;20061;-66
2021/06/05 02:05:04;;;;;;;13.02;5.07;;;;;;;;;;5115919;28;20422;-66
2021/06/05 02:07:29;;;;;;;11.48;5.00;;;;;;;;;;5097897;28;20020;-65
2021/06/05 02:09:54;;;;;;;11.07;5.13;;;;;;;;;;5098812;28;20092;-65
2021/06/05 02:12:30;;;;;;;10.50;4.75;;;;;;;;;;5108160;28;20035;-65
2021/06/05 02:14:55;;;;;;;;;;;;;;;;;;5115947;28;20045;-65
2021/06/05 02:17:22;;;;;;;13.27;4.85;;;;;;;;;;5116147;28;20007;-66
2021/06/05 02:19:51;;;;;;;9.38;4.55;;;;;;;;;;5115347;28;20038;-66
2021/06/05 02:22:20;;;;;;;11.07;4.85;;;;;;;;;;5115984;28;20511;-68
2021/06/05 02:24:47;;;;;;;9.93;5.60;;;;;;;;;;5114209;28;20031;-67
2021/06/05 02:27:18;;;;;;;10.07;4.60;;;;;;;;;;5115713;28;20036;-68
2021/06/05 02:29:44;;;;;;;14.07;4.85;;;;;;;;;;5115614;28;20023;-68
2021/06/05 02:32:10;;;;;;;8.30;4.75;;;;;;;;;;5115711;28;20428;-67
2021/06/05 02:34:37;;;;;;;13.68;5.47;;;;;;;;;;5114986;28;20115;-68
2021/06/05 02:37:03;;;;;;;13.23;5.22;;;;;;;;;;5095314;28;20035;-68
2021/06/05 02:39:29;;;;;;;11.80;5.10;;;;;;;;;;5102624;28;20081;-68
2021/06/05 02:41:55;;;;;;;10.75;4.90;;;;;;;;;;5115172;28;20474;-68
2021/06/05 02:44:23;;;;;;;13.90;4.85;;;;;;;;;;5115552;28;20037;-67
2021/06/05 02:46:48;;;;;;;10.63;4.75;;;;;;;;;;5115187;28;20035;-66
2021/06/05 02:49:17;;;;;;;11.32;5.28;;;;;;;;;;5115414;28;20037;-67
2021/06/05 02:51:42;;;;;;;8.23;4.18;;;;;;;;;;5114903;28;20012;-68
2021/06/05 02:54:08;;;;;;;13.18;4.85;;;;;;;;;;5115057;28;20425;-68
2021/06/05 02:56:33;;;;;;;9.80;4.63;;;;;;;;;;5115336;28;20430;-67
2021/06/05 02:58:59;;;;;;;12.02;4.90;;;;;;;;;;5114941;28;20011;-68
2021/06/05 03:01:24;;;;;;;9.30;4.28;;;;;;;;;;5114776;28;20039;-68
2021/06/05 03:03:50;;;;;;;9.95;4.93;;;;;;;;;;5114941;28;20032;-68
2021/06/05 03:06:16;;;;;;;11.07;4.70;;;;;;;;;;5114790;28;20102;-68
2021/06/05 03:08:42;;;;;;;8.93;4.70;;;;;;;;;;5114858;28;20024;-68
2021/06/05 03:11:09;;;;;;;10.15;4.40;;;;;;;;;;5114554;28;20054;-67
2021/06/05 03:13:35;;;;;;;8.38;4.45;;;;;;;;;;5115014;28;20030;-67
2021/06/05 03:16:01;;;;;;;12.00;5.40;;;;;;;;;;5114252;28;20043;-67
2021/06/05 03:18:26;;;;;;;10.32;4.90;;;;;;;;;;5114773;28;20042;-68
2021/06/05 03:20:52;;;;;;;11.88;5.05;;;;;;;;;;5113811;28;20683;-67
2021/06/05 03:23:20;;;;;;;11.65;4.63;;;;;;;;;;5102732;28;20039;-68
2021/06/05 03:25:48;;;;;;;9.88;4.47;;;;;;;;;;5109061;28;20046;-67
2021/06/05 03:28:14;;;;;;;9.68;5.05;;;;;;;;;;5114505;28;20019;-67
2021/06/05 03:30:40;;;;;;;10.82;5.03;;;;;;;;;;5113473;28;20035;-68
2021/06/05 03:33:05;;;;;;;9.45;4.50;;;;;;;;;;5114416;28;20178;-67
2021/06/05 03:35:31;;;;;;;12.15;4.88;;;;;;;;;;5113477;28;20018;-68
2021/06/05 03:37:56;;;;;;;12.73;5.32;;;;;;;;;;5114051;28;20046;-68
2021/06/05 03:40:24;;;;;;;11.10;4.57;;;;;;;;;;5114121;28;20468;-68
2021/06/05 03:42:50;;;;;;;9.80;4.47;;;;;;;;;;5114452;28;20027;-68
2021/06/05 03:45:15;;;;;;;12.98;5.00;;;;;;;;;;5114088;28;20384;-68
2021/06/05 03:47:42;;;;;;;10.50;4.82;;;;;;;;;;5114258;28;20046;-67
2021/06/05 03:50:09;;;;;;;10.18;4.68;;;;;;;;;;5113462;28;20468;-68
2021/06/05 03:52:34;;;;;;;11.57;5.10;;;;;;;;;;5110189;28;20488;-68
2021/06/05 03:54:59;;;;;;;12.50;5.28;;;;;;;;;;5113872;28;20027;-68
2021/06/05 03:57:25;;;;;;;10.32;4.85;;;;;;;;;;5114265;28;20028;-67
2021/06/05 03:59:53;;;;;;;12.55;4.75;;;;;;;;;;5113486;28;20035;-68
2021/06/05 04:02:18;;;;;;;11.82;4.60;;;;;;;;;;5113583;28;20028;-68
2021/06/05 04:04:44;;;;;;;10.95;4.88;;;;;;;;;;5113936;28;20430;-67
2021/06/05 04:07:10;;;;;;;11.73;4.68;;;;;;;;;;5113252;28;20039;-67
2021/06/05 04:09:35;;;;;;;13.05;5.10;;;;;;;;;;5113283;28;20148;-67
2021/06/05 04:12:01;;;;;;;11.02;4.47;;;;;;;;;;5113436;28;20031;-67
2021/06/05 04:14:27;;;;;;;10.15;4.13;;;;;;;;;;5113565;28;20379;-67
2021/06/05 04:16:52;;;;;;;8.13;4.20;;;;;;;;;;5113736;28;20458;-68
2021/06/05 04:19:17;;;;;;;11.73;4.78;;;;;;;;;;5113630;28;20018;-68
2021/06/05 04:21:42;;;;;;;13.63;4.35;;;;;;;;;;5113283;28;20384;-68
2021/06/05 04:24:08;;;;;;;13.93;4.78;;;;;;;;;;5113452;28;20526;-68
2021/06/05 04:26:33;;;;;;;8.75;4.40;;;;;;;;;;5113250;28;20019;-68
2021/06/05 04:28:59;;;;;;;12.18;5.18;;;;;;;;;;5113779;28;20059;-68
2021/06/05 04:31:24;;;;;;;12.02;4.90;;;;;;;;;;5113423;28;20404;-68
2021/06/05 04:33:49;;;;;;;14.23;4.57;;;;;;;;;;5113452;28;20106;-67
2021/06/05 04:36:15;;;;;;;14.65;4.70;;;;;;;;;;5113042;28;20036;-68
2021/06/05 04:38:41;;;;;;;8.73;4.20;;;;;;;;;;5113386;28;20102;-68
2021/06/05 04:41:07;;;;;;;14.40;4.93;;;;;;;;;;5113150;28;20019;-68
2021/06/05 04:43:33;;;;;;;8.73;4.18;;;;;;;;;;5113290;28;20384;-68
2021/06/05 04:45:59;;;;;;;13.10;4.18;;;;;;;;;;5113471;28;20458;-68
2021/06/05 04:48:24;;;;;;;9.25;3.30;;;;;;;;;;5114663;28;20375;-68
2021/06/05 04:50:50;;;;;;;18.58;3.95;;;;;;;;;;5117055;28;20106;-67
2021/06/05 04:53:15;;;;;;;234.63;15.57;;;;;;;;;;5117190;28;20032;-68
2021/06/05 04:55:41;;;;;;;297.42;19.35;;;;;;;;;;5117383;28;20019;-68
2021/06/05 04:58:06;;;;;;;175.30;13.05;;;;;;;;;;5117443;28;20031;-68
2021/06/05 05:00:34;;;;;;;81.40;6.45;;;;;;;;;;5117125;28;20028;-68
2021/06/05 05:03:00;;;;;;;12.38;2.78;;;;;;;;;;5117019;28;20031;-68
2021/06/05 05:05:26;;;;;;;5.63;2.00;;;;;;;;;;5117525;28;20020;-68
2021/06/05 05:07:52;;;;;;;3.38;1.80;;;;;;;;;;5116921;28;20031;-68
2021/06/05 05:10:19;;;;;;;3.90;1.75;;;;;;;;;;5117395;28;20078;-69
2021/06/05 05:12:44;;;;;;;3.38;1.70;;;;;;;;;;5117097;28;20122;-69
2021/06/05 05:15:10;;;;;;;4.03;1.80;;;;;;;;;;5116621;28;20114;-69
2021/06/05 05:17:35;;;;;;;2.00;1.60;;;;;;;;;;5116787;28;20036;-68
2021/06/05 05:20:02;;;;;;;2.65;1.50;;;;;;;;;;5117092;28;20165;-68
2021/06/05 05:22:28;;;;;;;2.92;1.80;;;;;;;;;;5116205;28;20032;-67
2021/06/05 05:24:53;;;;;;;2.10;1.63;;;;;;;;;;5116656;28;20038;-68
2021/06/05 05:27:18;;;;;;;4.18;1.50;;;;;;;;;;5116373;28;20023;-69
2021/06/05 05:29:43;;;;;;;3.00;1.80;;;;;;;;;;5116786;28;20042;-70
2021/06/05 05:32:09;;;;;;;4.43;1.90;;;;;;;;;;5116869;28;20034;-69
2021/06/05 05:34:34;;;;;;;3.10;1.80;;;;;;;;;;5116938;28;20046;-67
2021/06/05 05:36:59;;;;;;;2.70;1.83;;;;;;;;;;5116492;28;20464;-66
2021/06/05 05:39:25;;;;;;;2.92;1.77;;;;;;;;;;5116698;28;20024;-67
2021/06/05 05:41:50;;;;;;;3.75;1.90;;;;;;;;;;5116800;28;20812;-68
2021/06/05 05:44:16;;;;;;;2.40;1.58;;;;;;;;;;5116029;28;20122;-68
2021/06/05 05:46:42;;;;;;;4.35;2.15;;;;;;;;;;5116004;28;20023;-68
2021/06/05 05:49:07;;;;;;;3.58;1.70;;;;;;;;;;5116589;28;20028;-68
2021/06/05 05:51:32;;;;;;;2.00;1.67;;;;;;;;;;5116539;28;20035;-67
2021/06/05 05:53:58;;;;;;;5.28;1.88;;;;;;;;;;5116364;28;20039;-68
2021/06/05 05:56:24;;;;;;;1.90;1.33;;;;;;;;;;5115479;28;20027;-68
2021/06/05 05:58:51;;;;;;;3.22;1.15;;;;;;;;;;5115815;28;20039;-68
2021/06/05 06:01:19;;;;;;;2.88;1.15;;;;;;;;;;5115886;28;20059;-68
2021/06/05 06:03:45;;;;;;;1.85;1.20;;;;;;;;;;5116248;28;20024;-68
2021/06/05 06:06:10;;;;;;;1.85;1.10;;;;;;;;;;5115439;28;20027;-68
2021/06/05 06:08:36;;;;;;;1.17;0.85;;;;;;;;;;5115514;28;20022;-69
2021/06/05 06:11:02;;;;;;;2.00;1.00;;;;;;;;;;5115497;28;20043;-68
2021/06/05 06:13:28;;;;;;;2.00;1.20;;;;;;;;;;5116132;28;20051;-69
2021/06/05 06:15:53;;;;;;;1.67;1.20;;;;;;;;;;5115025;28;20484;-69
2021/06/05 06:18:18;;;;;;;1.58;1.20;;;;;;;;;;5115700;28;20425;-68
2021/06/05 06:20:45;;;;;;;1.65;1.10;;;;;;;;;;5115965;28;20541;-69
2021/06/05 06:23:12;;;;;;;1.10;1.00;;;;;;;;;;5115240;28;20379;-69
2021/06/05 06:25:39;;;;;;;4.53;1.17;;;;;;;;;;5115586;28;20031;-68
2021/06/05 06:28:09;;;;;;;2.65;1.10;;;;;;;;;;5115643;28;20031;-68
2021/06/05 06:30:35;;;;;;;2.45;1.20;;;;;;;;;;5115600;28;20065;-69
2021/06/05 06:33:02;;;;;;;2.88;1.00;;;;;;;;;;5115542;28;20111;-69
2021/06/05 06:35:29;;;;;;;1.88;1.23;;;;;;;;;;5115213;28;20035;-69
2021/06/05 06:37:54;;;;;;;1.98;1.23;;;;;;;;;;5114657;28;20039;-70
2021/06/05 06:40:22;;;;;;;3.88;1.25;;;;;;;;;;5115619;28;20031;-68
2021/06/05 06:42:47;;;;;;;1.02;0.93;;;;;;;;;;5114971;28;20528;-67
2021/06/05 06:45:13;;;;;;;1.77;1.10;;;;;;;;;;5115848;28;20031;-69
2021/06/05 06:47:38;;;;;;;3.15;1.30;;;;;;;;;;5096773;28;20027;-70
2021/06/05 06:50:08;;;;;;;2.70;1.10;;;;;;;;;;5115400;28;20039;-69
2021/06/05 06:52:33;;;;;;;1.70;1.30;;;;;;;;;;5115147;28;20016;-69
2021/06/05 06:54:59;;;;;;;3.63;1.58;;;;;;;;;;5115312;28;20034;-69
2021/06/05 06:57:24;;;;;;;2.20;1.27;;;;;;;;;;5115123;28;20046;-70
2021/06/05 06:59:50;;;;;;;1.98;1.30;;;;;;;;;;5114944;28;20371;-69
2021/06/05 07:02:15;;;;;;;4.38;1.20;;;;;;;;;;5114800;28;20030;-70
2021/06/05 07:04:40;;;;;;;2.20;1.38;;;;;;;;;;5099650;28;20038;-69
2021/06/05 07:07:06;;;;;;;2.15;1.40;;;;;;;;;;5107926;28;20422;-70
2021/06/05 07:09:32;;;;;;;2.50;1.27;;;;;;;;;;5108079;28;20044;-69
2021/06/05 07:11:58;;;;;;;4.50;1.20;;;;;;;;;;5114267;28;20031;-70
2021/06/05 07:14:23;;;;;;;2.03;1.00;;;;;;;;;;5114328;28;20035;-69
2021/06/05 07:16:48;;;;;;;2.67;1.17;;;;;;;;;;5114034;28;20157;-69
2021/06/05 07:19:14;;;;;;;2.25;0.90;;;;;;;;;;5114408;28;20036;-70
2021/06/05 07:21:39;;;;;;;1.63;1.00;;;;;;;;;;5114240;28;20059;-69
2021/06/05 07:24:05;;;;;;;1.98;1.00;;;;;;;;;;5113888;28;20747;-70
2021/06/05 07:26:30;;;;;;;1.35;1.00;;;;;;;;;;5114191;28;20369;-70
2021/06/05 07:29:00;;;;;;;2.85;1.17;;;;;;;;;;5114525;28;20019;-70
2021/06/05 07:31:30;;;;;;;3.15;1.33;;;;;;;;;;5114129;28;20031;-69
2021/06/05 07:33:55;;;;;;;1.98;1.30;;;;;;;;;;5114099;28;20107;-69
2021/06/05 07:36:23;;;;;;;2.20;1.25;;;;;;;;;;5113977;28;20131;-69
2021/06/05 07:38:48;;;;;;;4.65;1.50;;;;;;;;;;5113558;28;20085;-70
2021/06/05 07:41:13;;;;;;;3.70;1.80;;;;;;;;;;5114117;28;20043;-70
2021/06/05 07:43:39;;;;;;;3.50;1.70;;;;;;;;;;5114312;28;20045;-70
2021/06/05 07:46:05;;;;;;;4.80;2.85;;;;;;;;;;5113890;28;20472;-70
2021/06/05 07:48:31;;;;;;;5.78;3.10;;;;;;;;;;5114024;28;20035;-69
2021/06/05 07:50:56;;;;;;;3.25;1.98;;;;;;;;;;5113372;28;20020;-69
2021/06/05 07:53:21;;;;;;;3.95;1.65;;;;;;;;;;5113645;28;20031;-70
2021/06/05 07:55:47;;;;;;;4.63;1.88;;;;;;;;;;5113898;28;20024;-70
2021/06/05 07:58:12;;;;;;;1.90;1.50;;;;;;;;;;5114069;28;20073;-69
2021/06/05 08:00:38;;;;;;;8.00;1.90;;;;;;;;;;5098946;28;20031;-70
2021/06/05 08:03:04;;;;;;;3.92;2.28;;;;;;;;;;5093687;28;20161;-70
2021/06/05 08:05:30;;;;;;;2.17;1.75;;;;;;;;;;5109901;28;20376;-69
2021/06/05 08:07:55;;;;;;;3.60;2.00;;;;;;;;;;5102799;28;20031;-70
2021/06/05 08:10:23;;;;;;;5.63;1.88;;;;;;;;;;5103135;28;20059;-70
2021/06/05 08:12:48;;;;;;;5.10;2.00;;;;;;;;;;5109181;28;20352;-70
2021/06/05 08:15:16;;;;;;;3.47;1.60;;;;;;;;;;5106684;28;20030;-69
2021/06/05 08:17:42;;;;;;;4.63;1.70;;;;;;;;;;5111650;28;20387;-69
2021/06/05 08:20:10;;;;;;;3.17;1.70;;;;;;;;;;5104330;28;20020;-69
2021/06/05 08:22:35;;;;;;;3.83;1.70;;;;;;;;;;5097750;28;20031;-69
2021/06/05 08:25:00;;;;;;;2.60;1.50;;;;;;;;;;5100591;28;20036;-70
2021/06/05 08:27:26;;;;;;;3.55;1.77;;;;;;;;;;5105760;28;20295;-69
2021/06/05 08:29:52;;;;;;;4.30;1.73;;;;;;;;;;5100204;28;20028;-70
2021/06/05 08:32:18;;;;;;;3.47;1.65;;;;;;;;;;5107907;28;20446;-69
2021/06/05 08:34:43;;;;;;;5.00;1.73;;;;;;;;;;5108401;28;20063;-68
2021/06/05 08:37:08;;;;;;;2.27;1.50;;;;;;;;;;5107807;28;20264;-70
2021/06/05 08:39:34;;;;;;;3.65;1.38;;;;;;;;;;5112539;28;20302;-70
2021/06/05 08:42:01;;;;;;;3.13;1.55;;;;;;;;;;5111614;28;20422;-69
2021/06/05 08:44:33;;;;;;;4.03;1.60;;;;;;;;;;5105555;28;20020;-70
2021/06/05 08:47:05;;;;;;;3.55;1.20;;;;;;;;;;5103431;28;20036;-69
2021/06/05 08:49:33;;;;;;;4.63;1.50;;;;;;;;;;5098131;28;20032;-71
2021/06/05 08:52:09;;;;;;;3.17;1.52;;;;;;;;;;5110033;28;20032;-70
2021/06/05 08:54:34;;;;;;;4.60;1.40;;;;;;;;;;5111181;28;20035;-70
2021/06/05 08:57:05;;;;;;;2.87;1.50;;;;;;;;;;5109743;28;20028;-69
2021/06/05 08:59:31;;;;;;;2.17;1.20;;;;;;;;;;5111637;28;20260;-68
2021/06/05 09:01:57;;;;;;;2.67;1.50;;;;;;;;;;5109259;28;20076;-68
2021/06/05 09:04:24;;;;;;;2.33;1.20;;;;;;;;;;5102872;28;20391;-70
2021/06/05 09:06:56;;;;;;;3.13;1.60;;;;;;;;;;5105788;28;20028;-70
2021/06/05 09:09:24;;;;;;;4.38;1.75;;;;;;;;;;5097912;28;20043;-70
2021/06/05 09:11:50;;;;;;;3.67;1.83;;;;;;;;;;5110677;28;20110;-70
2021/06/05 09:14:15;;;;;;;4.30;1.80;;;;;;;;;;5109928;28;20077;-69
2021/06/05 09:16:46;;;;;;;3.83;1.50;;;;;;;;;;5105711;28;20031;-71
2021/06/05 09:19:13;;;;;;;3.03;1.45;;;;;;;;;;5112331;28;20136;-70
2021/06/05 09:21:47;;;;;;;1.98;1.40;;;;;;;;;;5108844;28;20097;-69
2021/06/05 09:24:24;;;;;;;3.95;1.55;;;;;;;;;;5106649;28;20823;-70
2021/06/05 09:27:01;;;;;;;2.80;1.58;;;;;;;;;;5111195;28;20036;-71
2021/06/05 09:29:27;;;;;;;3.83;1.65;;;;;;;;;;5111619;28;20035;-69
2021/06/05 09:32:08;;;;;;;9.73;3.10;;;;;;;;;;5103972;28;20047;-69
2021/06/05 09:34:35;;;;;;;3.22;1.85;;;;;;;;;;5112030;28;20055;-70
2021/06/05 09:37:01;;;;;;;5.00;1.60;;;;;;;;;;5114344;28;20023;-69
2021/06/05 09:39:39;;;;;;;3.38;1.52;;;;;;;;;;5114294;28;20034;-70
2021/06/05 09:42:04;;;;;;;5.45;2.00;;;;;;;;;;5096808;28;20028;-70
2021/06/05 09:44:38;;;;;;;4.50;1.83;;;;;;;;;;5091463;28;20552;-70
2021/06/05 09:47:06;;;;;;;3.45;1.50;;;;;;;;;;5100217;28;20043;-70
2021/06/05 09:49:46;;;;;;;8.23;2.15;;;;;;;;;;5101274;28;20023;-70
2021/06/05 09:52:12;;;;;;;6.55;2.10;;;;;;;;;;5100733;28;20024;-69
2021/06/05 09:54:42;;;;;;;6.50;1.95;;;;;;;;;;5091713;28;20032;-69
2021/06/05 09:57:19;;;;;;;3.47;1.58;;;;;;;;;;5092139;28;20059;-70
2021/06/05 09:59:56;;;;;;;5.22;1.83;;;;;;;;;;5094327;28;20052;-69
2021/06/05 10:02:23;;;;;;;5.22;1.85;;;;;;;;;;5111255;28;20114;-70
2021/06/05 10:05:03;;;;;;;4.93;1.77;;;;;;;;;;5099133;28;20464;-69
2021/06/05 10:07:28;;;;;;;6.15;1.92;;;;;;;;;;5104723;28;20047;-69
2021/06/05 10:10:12;;;;;;;6.55;2.10;;;;;;;;;;5093116;28;20044;-70
2021/06/05 10:12:39;;;;;;;5.97;2.13;;;;;;;;;;5103196;28;20070;-70
2021/06/05 10:15:11;;;;;;;6.57;2.70;;;;;;;;;;5095218;28;20257;-66
2021/06/05 10:17:36;;;;;;;7.88;2.42;;;;;;;;;;5101239;28;20032;-70
2021/06/05 10:20:07;;;;;;;7.90;2.40;;;;;;;;;;5113019;28;20023;-69
2021/06/05 10:22:34;;;;;;;8.95;2.25;;;;;;;;;;5101156;28;20307;-70
2021/06/05 10:25:02;;;;;;;6.30;2.55;;;;;;;;;;5101037;28;20432;-70
2021/06/05 10:27:32;;;;;;;4.80;1.88;;;;;;;;;;5101846;28;20400;-70
2021/06/05 10:29:59;;;;;;;7.25;2.08;;;;;;;;;;5103357;28;20023;-69
2021/06/05 10:32:30;;;;;;;8.48;2.38;;;;;;;;;;5096792;28;20101;-69
2021/06/05 10:35:01;;;;;;;5.60;2.17;;;;;;;;;;5097906;28;20432;-69
2021/06/05 10:37:28;;;;;;;6.40;2.38;;;;;;;;;;5103903;28;20032;-69
2021/06/05 10:39:54;;;;;;;6.50;2.10;;;;;;;;;;5096120;28;20043;-69
2021/06/05 10:42:19;;;;;;;7.93;2.42;;;;;;;;;;5093021;28;20020;-68
2021/06/05 10:44:44;;;;;;;8.23;2.40;;;;;;;;;;5094905;28;20031;-66
2021/06/05 10:47:12;;;;;;;6.45;1.88;;;;;;;;;;5095634;28;20523;-68
2021/06/05 10:50:03;;;;;;;5.85;1.75;;;;;;;;;;5096139;28;20376;-67
2021/06/05 10:52:31;;;;;;;18.70;5.65;;;;;;;;;;5094775;28;20396;-68
2021/06/05 10:55:08;;;;;;;6.05;2.10;;;;;;;;;;5102064;28;20496;-69
2021/06/05 10:57:35;;;;;;;7.13;2.38;;;;;;;;;;5112215;28;20028;-66
2021/06/05 11:00:20;;;;;;;6.03;1.75;;;;;;;;;;5100831;28;20039;-66
2021/06/05 11:02:47;;;;;;;8.10;1.85;;;;;;;;;;5044722;28;20395;-67
2021/06/05 11:05:24;;;;;;;8.88;1.77;;;;;;;;;;5105403;28;20115;-67
2021/06/05 11:07:58;;;;;;;7.53;1.90;;;;;;;;;;5097453;28;20028;-67
2021/06/05 11:10:43;;;;;;;8.18;2.35;;;;;;;;;;5092855;28;20079;-68
2021/06/05 11:13:08;;;;;;;7.70;2.00;;;;;;;;;;5110896;28;20027;-65
2021/06/05 11:15:48;;;;;;;4.75;1.38;;;;;;;;;;5112499;28;20379;-67
2021/06/05 11:18:22;;;;;;;5.72;1.63;;;;;;;;;;5103764;28;20487;-67
2021/06/05 11:20:47;;;;;;;6.30;1.52;;;;;;;;;;5109996;28;20031;-67
2021/06/05 11:23:14;;;;;;;6.57;1.80;;;;;;;;;;5104282;28;20018;-66
2021/06/05 11:25:44;;;;;;;7.07;1.70;;;;;;;;;;5103381;28;20054;-67
2021/06/05 11:28:21;;;;;;;7.53;1.88;;;;;;;;;;5096207;28;20097;-67
2021/06/05 11:30:46;;;;;;;4.95;1.75;;;;;;;;;;5092234;28;20039;-67
2021/06/05 11:33:32;;;;;;;5.10;1.73;;;;;;;;;;5097534;28;20027;-68
2021/06/05 11:36:01;;;;;;;5.00;2.05;;;;;;;;;;5103342;28;20027;-67
2021/06/05 11:38:27;;;;;;;9.70;2.13;;;;;;;;;;5104326;28;20024;-66
2021/06/05 11:41:30;;;;;;;5.18;1.60;;;;;;;;;;5097978;28;20107;-67
2021/06/05 11:44:15;;;;;;;9.05;1.95;;;;;;;;;;5103142;28;20460;-67
2021/06/05 11:46:43;;;;;;;7.07;2.03;;;;;;;;;;5098674;28;20051;-65
2021/06/05 11:49:09;;;;;;;6.07;1.83;;;;;;;;;;5106364;28;20037;-66
2021/06/05 11:51:41;;;;;;;5.97;1.77;;;;;;;;;;5105233;28;20471;-67
2021/06/05 11:54:09;;;;;;;4.53;1.80;;;;;;;;;;5101124;28;20035;-68
2021/06/05 11:56:46;;;;;;;9.23;1.88;;;;;;;;;;5105052;28;20023;-69
2021/06/05 11:59:11;;;;;;;8.60;1.92;;;;;;;;;;5100521;28;20032;-69
2021/06/05 12:01:37;;;;;;;7.75;1.88;;;;;;;;;;5092056;28;20032;-68
2021/06/05 12:04:08;;;;;;;7.43;1.67;;;;;;;;;;5102481;28;20127;-69
2021/06/05 12:06:36;;;;;;;4.20;1.80;;;;;;;;;;5103257;28;20063;-69
2021/06/05 12:09:07;;;;;;;8.75;1.90;;;;;;;;;;5108744;28;20048;-68
2021/06/05 12:11:38;;;;;;;7.25;1.58;;;;;;;;;;5106873;28;20086;-68
2021/06/05 12:14:22;;;;;;;4.57;1.80;;;;;;;;;;5080538;28;20229;-69
2021/06/05 12:16:53;;;;;;;7.65;1.98;;;;;;;;;;5103988;28;20033;-68
2021/06/05 12:19:24;;;;;;;5.93;1.55;;;;;;;;;;5106098;28;20072;-68
2021/06/05 12:21:49;;;;;;;8.23;2.10;;;;;;;;;;5102871;28;20467;-68
2021/06/05 12:24:18;;;;;;;5.18;1.95;;;;;;;;;;5104492;28;20012;-69
2021/06/05 12:26:48;;;;;;;4.18;1.50;;;;;;;;;;5104757;28;20036;-68
2021/06/05 12:29:18;;;;;;;7.05;1.90;;;;;;;;;;5102741;28;20034;-69
2021/06/05 12:31:44;;;;;;;7.85;1.90;;;;;;;;;;5099096;28;20023;-69
2021/06/05 12:34:09;;;;;;;5.78;1.58;;;;;;;;;;5099813;28;20146;-68
2021/06/05 12:36:38;;;;;;;6.72;1.90;;;;;;;;;;5091729;28;20520;-69
2021/06/05 12:39:26;;;;;;;6.40;2.80;;;;;;;;;;5091241;28;20081;-69
2021/06/05 12:41:52;;;;;;;3.42;1.20;;;;;;;;;;5102606;28;20036;-68
2021/06/05 12:44:29;;;;;;;9.00;2.58;;;;;;;;;;5104195;28;20069;-68
2021/06/05 12:46:55;;;;;;;7.18;2.00;;;;;;;;;;5095095;28;20086;-69
2021/06/05 12:49:25;;;;;;;7.50;1.67;;;;;;;;;;5101027;28;20444;-69
2021/06/05 12:51:53;;;;;;;4.32;1.40;;;;;;;;;;5107334;28;20031;-68
2021/06/05 12:54:24;;;;;;;7.68;1.73;;;;;;;;;;5109850;28;20039;-68
2021/06/05 12:56:50;;;;;;;5.72;1.77;;;;;;;;;;5105900;28;20020;-66
2021/06/05 12:59:27;;;;;;;5.93;1.48;;;;;;;;;;5094928;28;20036;-67
2021/06/05 13:01:53;;;;;;;4.45;1.55;;;;;;;;;;5106041;28;20050;-66
2021/06/05 13:04:32;;;;;;;5.65;1.40;;;;;;;;;;5111195;28;20035;-65
2021/06/05 13:06:59;;;;;;;9.98;1.40;;;;;;;;;;5095830;28;20033;-67
2021/06/05 13:09:35;;;;;;;3.75;1.58;;;;;;;;;;5095852;28;20932;-66
2021/06/05 13:12:03;;;;;;;3.00;1.25;;;;;;;;;;5113366;28;20080;-66
2021/06/05 13:14:33;;;;;;;4.85;1.20;;;;;;;;;;5115518;28;20114;-67
2021/06/05 13:17:16;;;;;;;6.75;1.50;;;;;;;;;;5114565;28;20486;-68
2021/06/05 13:19:43;;;;;;;4.72;1.50;;;;;;;;;;5114981;28;20023;-66
2021/06/05 13:22:14;;;;;;;7.03;1.20;;;;;;;;;;5112399;28;20027;-66
2021/06/05 13:24:58;;;;;;;4.43;1.08;;;;;;;;;;5112613;28;20016;-66
2021/06/05 13:27:24;;;;;;;4.57;1.42;;;;;;;;;;5102252;28;20028;-66
2021/06/05 13:29:50;;;;;;;2.00;0.90;;;;;;;;;;5097597;28;20434;-67
2021/06/05 13:32:24;;;;;;;2.47;0.80;;;;;;;;;;5094374;28;20066;-67
2021/06/05 13:34:49;;;;;;;1.88;0.73;;;;;;;;;;5095663;28;20481;-66
2021/06/05 13:37:17;;;;;;;7.50;1.50;;;;;;;;;;5094625;28;20039;-66
2021/06/05 13:39:42;;;;;;;0.68;0.40;;;;;;;;;;5098136;28;20019;-67
2021/06/05 13:42:08;;;;;;;5.00;1.40;;;;;;;;;;5111183;28;20040;-68
2021/06/05 13:44:33;;;;;;;4.38;1.13;;;;;;;;;;5093895;28;20115;-67
2021/06/05 13:46:59;;;;;;;2.83;0.98;;;;;;;;;;5104109;28;20020;-68
2021/06/05 13:49:24;;;;;;;2.63;0.80;;;;;;;;;;5109847;28;20034;-67
2021/06/05 13:51:49;;;;;;;7.90;1.77;;;;;;;;;;5115988;28;20042;-67
2021/06/05 13:54:15;;;;;;;2.45;0.82;;;;;;;;;;5116397;28;20095;-67
2021/06/05 13:56:42;;;;;;;2.85;0.95;;;;;;;;;;5116029;28;20032;-67
2021/06/05 13:59:07;;;;;;;4.25;1.15;;;;;;;;;;5108666;28;20087;-67
2021/06/05 14:01:33;;;;;;;2.80;0.93;;;;;;;;;;5096039;28;20138;-70
2021/06/05 14:03:59;;;;;;;3.30;1.10;;;;;;;;;;5110464;28;20032;-70
2021/06/05 14:06:25;;;;;;;2.58;0.90;;;;;;;;;;5116239;28;20044;-70
2021/06/05 14:08:50;;;;;;;3.17;1.25;;;;;;;;;;5116376;28;20019;-70
2021/06/05 14:11:17;;;;;;;2.97;1.08;;;;;;;;;;5115875;28;20532;-70
2021/06/05 14:13:46;;;;;;;2.33;0.90;;;;;;;;;;5116152;28;20078;-67
2021/06/05 14:16:11;;;;;;;2.72;1.23;;;;;;;;;;5101379;28;20043;-67
2021/06/05 14:18:37;;;;;;;2.60;0.98;;;;;;;;;;5077521;28;20028;-67
2021/06/05 14:21:04;;;;;;;3.85;1.00;;;;;;;;;;5094166;28;20522;-67
2021/06/05 14:23:29;;;;;;;2.72;0.70;;;;;;;;;;5095709;28;20024;-67
2021/06/05 14:25:55;;;;;;;5.45;1.80;;;;;;;;;;5095452;28;20362;-67
2021/06/05 14:28:23;;;;;;;3.72;0.80;;;;;;;;;;5095573;28;20042;-67
2021/06/05 14:30:49;;;;;;;4.05;0.90;;;;;;;;;;5095411;28;20436;-67
2021/06/05 14:33:15;;;;;;;4.35;1.00;;;;;;;;;;5094863;28;20067;-67
2021/06/05 14:35:41;;;;;;;2.85;0.80;;;;;;;;;;5094971;28;20123;-67
2021/06/05 14:38:08;;;;;;;9.95;1.70;;;;;;;;;;5095450;28;20059;-68
2021/06/05 14:40:33;;;;;;;8.68;2.45;;;;;;;;;;5094251;28;20487;-67
2021/06/05 14:42:59;;;;;;;2.95;0.90;;;;;;;;;;5094904;28;20111;-67
2021/06/05 14:45:33;;;;;;;3.55;1.08;;;;;;;;;;5095035;28;20028;-67